Ever Dainty — 9V7951 — position and weather

sailwx.info

Track history (hours):
 
Tides and Currents Weather Stations Pressure Air Temp Water Temp Dewpoint Dewpoint Depression Visibility Wind Speed Wind Dir Waves Ship Positions

Ever Dainty

Last reported at 2017-Nov-14 07:23 UTC. Time now 2017-Nov-19 10:49 UTC.
Position N 33°54' E 134°54'.

Length 294 m; draft 10.3 m.

Type: Ship (hazmat cat D). MMSI: 565106000.

Date/timePositionNaut miles runAvg speedWind from/ knotsBaromVisibWave heightAir tempDewpointWater temp
2017-Nov-14 07:23N 33°54' E 134°54'717.8
2017-Nov-14 07:00N 34°01' E 134°56'816.8
2017-Nov-14 06:30N 34°09' E 134°57'713.7
2017-Nov-14 06:01N 34°16' E 134°58'815.3
2017-Nov-14 05:28N 34°24' E 135°02'920.1
2017-Nov-14 05:00N 34°29' E 135°10'918.9
2017-Nov-14 04:30N 34°36' E 135°19'510.5
2017-Nov-14 04:00N 34°39' E 135°24'0 0.4
2017-Nov-14 03:29N 34°39' E 135°24'0 0.1
2017-Nov-14 02:47N 34°39' E 135°24'0 0.1
2017-Nov-14 02:23N 34°39' E 135°24'0 0.0
2017-Nov-14 01:59N 34°39' E 135°24'0 0.0
2017-Nov-14 01:30N 34°39' E 135°24'0 0.0
2017-Nov-14 01:00N 34°39' E 135°24'0 0.1
2017-Nov-14 00:31N 34°39' E 135°24'0 0.1
2017-Nov-14 00:00N 34°39' E 135°24'0 0.1
2017-Nov-13 23:30N 34°39' E 135°24'0 0.0
2017-Nov-13 23:01N 34°39' E 135°24'1 1.1
2017-Nov-13 22:30N 34°38' E 135°24'4 7.8
2017-Nov-13 22:00N 34°36' E 135°20'213 6.1
2017-Nov-12 11:16N 34°42' E 139°38'518.6
2017-Nov-12 11:00N 34°47' E 139°40'919.1
2017-Nov-12 10:30N 34°56' E 139°42'917.4
2017-Nov-12 10:01N 35°05' E 139°44'714.9
2017-Nov-12 09:30N 35°12' E 139°46'611.4
2017-Nov-12 09:00N 35°18' E 139°44'611.8
2017-Nov-12 08:30N 35°23' E 139°42'4 7.7
2017-Nov-12 08:00N 35°27' E 139°41'0 0.6
2017-Nov-12 07:30N 35°27' E 139°41'0 0.0
2017-Nov-12 07:00N 35°27' E 139°41'0 0.0
2017-Nov-12 06:30N 35°27' E 139°41'0 0.0
2017-Nov-12 05:57N 35°27' E 139°41'0 0.0
2017-Nov-12 05:30N 35°27' E 139°41'0 0.0
2017-Nov-12 04:57N 35°27' E 139°41'0 0.0
2017-Nov-12 04:30N 35°27' E 139°41'0 0.0
2017-Nov-12 04:00N 35°27' E 139°41'0 0.0
2017-Nov-12 03:30N 35°27' E 139°41'0 0.0
2017-Nov-12 03:00N 35°27' E 139°41'0 0.0
2017-Nov-12 02:30N 35°27' E 139°41'0 0.1
2017-Nov-12 02:00N 35°27' E 139°41'0 0.1
2017-Nov-12 01:30N 35°27' E 139°41'0 0.0
2017-Nov-12 01:00N 35°27' E 139°41'0 0.0
2017-Nov-12 00:30N 35°27' E 139°41'0 0.0
2017-Nov-12 00:00N 35°27' E 139°41'0 0.1
2017-Nov-11 23:30N 35°27' E 139°41'1 2.3
2017-Nov-11 23:00N 35°26' E 139°42'4 7.4
2017-Nov-11 22:30N 35°23' E 139°43'611.3
2017-Nov-11 22:00N 35°17' E 139°45'612.3
2017-Nov-11 21:30N 35°11' E 139°47'5 9.6
2017-Nov-11 21:00N 35°07' E 139°46'4 8.4
2017-Nov-11 20:30N 35°03' E 139°43'611.2
2017-Nov-11 20:00N 34°57' E 139°42'612.9
2017-Nov-11 19:30N 34°51' E 139°42'713.9
2017-Nov-11 19:00N 34°45' E 139°46'63714.8
2017-Nov-10 00:00N 24°24' E 142°30'50113.9 040 / 22101.610.8 27.517.021.7
2017-Nov-08 12:00N 17°18' E 147°12'19316.1 070 / 171011.010.8 29.318.023.7
2017-Nov-08 00:00N 14°18' E 148°24'18615.5 080 / 161010.010.8 30.319.022.3
2017-Nov-07 12:00N 11°24' E 149°30'17814.8 080 / 131010.010.8 29.618.024.3
2017-Nov-07 00:00N 08°36' E 150°30'94226.2 140 / 131009.010.8 28.818.021.5
2017-Nov-05 12:00S 07°00' E 152°18'24320.2 120 / 61010.010.8 28.819.022.0
2017-Nov-05 00:00S 03°00' E 152°54'17214.3 140 / 71008.010.8 30.319.022.0
2017-Nov-04 12:00S 05°48' E 153°30'   310 / 21008.010.8 29.819.022.0
Track history (hours):
 
Tides and Currents Weather Stations Pressure Air Temp Water Temp Dewpoint Dewpoint Depression Visibility Wind Speed Wind Dir Waves Ship Positions

Ever Dainty

Last reported at 2017-Nov-14 07:23 UTC. Time now 2017-Nov-19 10:49 UTC.
Position N 33°54' E 134°54'.

Length 294 m; draft 10.3 m.

Type: Ship (hazmat cat D). MMSI: 565106000.

Date/timePositionNaut miles runAvg speedWind from/ knotsBaromVisibWave heightAir tempDewpointWater temp
2017-Nov-14 07:23N 33°54' E 134°54'717.8
2017-Nov-14 07:00N 34°01' E 134°56'816.8
2017-Nov-14 06:30N 34°09' E 134°57'713.7
2017-Nov-14 06:01N 34°16' E 134°58'815.3
2017-Nov-14 05:28N 34°24' E 135°02'920.1
2017-Nov-14 05:00N 34°29' E 135°10'918.9
2017-Nov-14 04:30N 34°36' E 135°19'510.5
2017-Nov-14 04:00N 34°39' E 135°24'0 0.4
2017-Nov-14 03:29N 34°39' E 135°24'0 0.1
2017-Nov-14 02:47N 34°39' E 135°24'0 0.1
2017-Nov-14 02:23N 34°39' E 135°24'0 0.0
2017-Nov-14 01:59N 34°39' E 135°24'0 0.0
2017-Nov-14 01:30N 34°39' E 135°24'0 0.0
2017-Nov-14 01:00N 34°39' E 135°24'0 0.1
2017-Nov-14 00:31N 34°39' E 135°24'0 0.1
2017-Nov-14 00:00N 34°39' E 135°24'0 0.1
2017-Nov-13 23:30N 34°39' E 135°24'0 0.0
2017-Nov-13 23:01N 34°39' E 135°24'1 1.1
2017-Nov-13 22:30N 34°38' E 135°24'4 7.8
2017-Nov-13 22:00N 34°36' E 135°20'213 6.1
2017-Nov-12 11:16N 34°42' E 139°38'518.6
2017-Nov-12 11:00N 34°47' E 139°40'919.1
2017-Nov-12 10:30N 34°56' E 139°42'917.4
2017-Nov-12 10:01N 35°05' E 139°44'714.9
2017-Nov-12 09:30N 35°12' E 139°46'611.4
2017-Nov-12 09:00N 35°18' E 139°44'611.8
2017-Nov-12 08:30N 35°23' E 139°42'4 7.7
2017-Nov-12 08:00N 35°27' E 139°41'0 0.6
2017-Nov-12 07:30N 35°27' E 139°41'0 0.0
2017-Nov-12 07:00N 35°27' E 139°41'0 0.0
2017-Nov-12 06:30N 35°27' E 139°41'0 0.0
2017-Nov-12 05:57N 35°27' E 139°41'0 0.0
2017-Nov-12 05:30N 35°27' E 139°41'0 0.0
2017-Nov-12 04:57N 35°27' E 139°41'0 0.0
2017-Nov-12 04:30N 35°27' E 139°41'0 0.0
2017-Nov-12 04:00N 35°27' E 139°41'0 0.0
2017-Nov-12 03:30N 35°27' E 139°41'0 0.0
2017-Nov-12 03:00N 35°27' E 139°41'0 0.0
2017-Nov-12 02:30N 35°27' E 139°41'0 0.1
2017-Nov-12 02:00N 35°27' E 139°41'0 0.1
2017-Nov-12 01:30N 35°27' E 139°41'0 0.0
2017-Nov-12 01:00N 35°27' E 139°41'0 0.0
2017-Nov-12 00:30N 35°27' E 139°41'0 0.0
2017-Nov-12 00:00N 35°27' E 139°41'0 0.1
2017-Nov-11 23:30N 35°27' E 139°41'1 2.3
2017-Nov-11 23:00N 35°26' E 139°42'4 7.4
2017-Nov-11 22:30N 35°23' E 139°43'611.3
2017-Nov-11 22:00N 35°17' E 139°45'612.3
2017-Nov-11 21:30N 35°11' E 139°47'5 9.6
2017-Nov-11 21:00N 35°07' E 139°46'4 8.4
2017-Nov-11 20:30N 35°03' E 139°43'611.2
2017-Nov-11 20:00N 34°57' E 139°42'612.9
2017-Nov-11 19:30N 34°51' E 139°42'713.9
2017-Nov-11 19:00N 34°45' E 139°46'63714.8
2017-Nov-10 00:00N 24°24' E 142°30'50113.9 040 / 22101.610.8 27.517.021.7
2017-Nov-08 12:00N 17°18' E 147°12'19316.1 070 / 171011.010.8 29.318.023.7
2017-Nov-08 00:00N 14°18' E 148°24'18615.5 080 / 161010.010.8 30.319.022.3
2017-Nov-07 12:00N 11°24' E 149°30'17814.8 080 / 131010.010.8 29.618.024.3
2017-Nov-07 00:00N 08°36' E 150°30'94226.2 140 / 131009.010.8 28.818.021.5
2017-Nov-05 12:00S 07°00' E 152°18'24320.2 120 / 61010.010.8 28.819.022.0
2017-Nov-05 00:00S 03°00' E 152°54'17214.3 140 / 71008.010.8 30.319.022.0
2017-Nov-04 12:00S 05°48' E 153°30'   310 / 21008.010.8 29.819.022.0

Dump ship's entire track history